createdAt,value
2019-03-26T00:01:57.947Z,61.30
2019-03-26T00:04:30.548Z,61.70
2019-03-26T00:07:03.195Z,61.60
2019-03-26T00:09:36.123Z,61.00
2019-03-26T00:12:08.821Z,61.00
2019-03-26T00:14:41.763Z,60.80
2019-03-26T00:17:14.378Z,61.10
2019-03-26T00:19:46.994Z,61.60
2019-03-26T00:22:19.630Z,61.20
2019-03-26T00:24:52.246Z,60.80
2019-03-26T00:27:25.747Z,60.20
2019-03-26T00:29:58.354Z,60.30
2019-03-26T00:32:31.008Z,61.10
2019-03-26T00:35:03.707Z,61.00
2019-03-26T00:37:36.364Z,61.50
2019-03-26T00:40:09.466Z,61.40
2019-03-26T00:42:42.427Z,61.60
2019-03-26T00:45:15.081Z,61.70
2019-03-26T00:47:47.679Z,60.50
2019-03-26T00:50:20.603Z,61.60
2019-03-26T00:52:54.172Z,61.80
2019-03-26T00:55:27.169Z,61.90
2019-03-26T00:58:01.651Z,61.70
2019-03-26T01:00:45.087Z,61.40
2019-03-26T01:03:18.079Z,60.80
2019-03-26T01:05:50.715Z,61.60
2019-03-26T01:08:23.507Z,61.00
2019-03-26T01:10:56.197Z,60.70
2019-03-26T01:13:29.382Z,60.50
2019-03-26T01:16:02.271Z,60.50
2019-03-26T01:18:34.876Z,60.60
2019-03-26T01:21:07.921Z,60.60
2019-03-26T01:23:40.545Z,60.10
2019-03-26T01:26:13.210Z,59.90
2019-03-26T01:28:46.148Z,59.10
2019-03-26T01:31:18.808Z,58.90
2019-03-26T01:33:51.428Z,58.70
2019-03-26T01:36:24.692Z,58.90
2019-03-26T01:38:57.294Z,59.20
2019-03-26T01:41:29.942Z,59.50
2019-03-26T01:44:02.591Z,59.80
2019-03-26T01:46:35.613Z,59.90
2019-03-26T01:49:08.240Z,60.00
2019-03-26T01:51:41.160Z,59.80
2019-03-26T01:54:13.794Z,59.80
2019-03-26T01:56:46.474Z,59.80
2019-03-26T01:59:19.072Z,60.30
2019-03-26T02:01:51.726Z,60.30
2019-03-26T02:04:24.329Z,60.80
2019-03-26T02:06:57.010Z,60.80
2019-03-26T02:09:29.611Z,60.70
2019-03-26T02:12:02.407Z,60.20
2019-03-26T02:14:35.002Z,59.70
2019-03-26T02:17:07.938Z,59.90
2019-03-26T02:19:40.562Z,59.60
2019-03-26T02:22:13.240Z,59.40
2019-03-26T02:24:45.863Z,60.10
2019-03-26T02:27:18.582Z,60.00
2019-03-26T02:29:51.235Z,59.90
2019-03-26T02:32:24.010Z,59.20
2019-03-26T02:34:56.738Z,58.60
2019-03-26T02:37:29.370Z,58.50
2019-03-26T02:40:01.989Z,58.20
2019-03-26T02:42:34.620Z,58.10
2019-03-26T02:45:07.849Z,57.90
2019-03-26T02:47:40.533Z,58.20
2019-03-26T02:50:13.257Z,58.00
2019-03-26T02:52:47.025Z,57.90
2019-03-26T02:55:20.035Z,58.00
2019-03-26T02:57:52.708Z,58.00
2019-03-26T03:00:25.323Z,58.10
2019-03-26T03:02:58.288Z,58.20
2019-03-26T03:05:35.675Z,58.10
2019-03-26T03:08:05.774Z,58.40
2019-03-26T03:10:38.382Z,58.30
2019-03-26T03:13:11.092Z,58.30
2019-03-26T03:15:43.696Z,58.80
2019-03-26T03:18:16.473Z,59.00
2019-03-26T03:20:49.084Z,59.00
2019-03-26T03:23:21.770Z,59.10
2019-03-26T03:25:54.379Z,58.60
2019-03-26T03:28:27.426Z,59.20
2019-03-26T03:31:00.344Z,59.10
2019-03-26T03:33:33.017Z,59.30
2019-03-26T03:36:06.029Z,59.70
2019-03-26T03:38:41.353Z,60.00
2019-03-26T03:41:13.038Z,60.10
2019-03-26T03:43:45.703Z,60.30
2019-03-26T03:46:18.322Z,60.50
2019-03-26T03:48:51.306Z,60.80
2019-03-26T03:51:26.587Z,60.90
2019-03-26T03:54:00.043Z,60.50
2019-03-26T03:56:34.025Z,60.40
2019-03-26T03:59:06.772Z,60.00
2019-03-26T04:01:39.762Z,59.80
2019-03-26T04:04:12.450Z,59.50
2019-03-26T04:06:46.264Z,59.10
2019-03-26T04:09:18.952Z,58.50
2019-03-26T04:11:51.558Z,58.30
2019-03-26T04:14:24.531Z,58.50
2019-03-26T04:16:57.174Z,58.40
2019-03-26T04:19:29.799Z,58.30
2019-03-26T04:22:02.445Z,58.10
2019-03-26T04:24:35.474Z,58.10
2019-03-26T04:27:08.793Z,57.90
2019-03-26T04:29:41.472Z,57.90
2019-03-26T04:32:14.102Z,57.70
2019-03-26T04:34:46.760Z,57.60
2019-03-26T04:37:19.428Z,57.60
2019-03-26T04:39:52.105Z,57.90
2019-03-26T04:42:24.710Z,57.90
2019-03-26T04:44:57.377Z,57.80
2019-03-26T04:47:29.990Z,57.70
2019-03-26T04:50:02.657Z,57.90
2019-03-26T04:52:35.595Z,58.10
2019-03-26T04:55:08.583Z,58.60
2019-03-26T04:57:41.478Z,58.70
2019-03-26T05:00:15.258Z,58.40
2019-03-26T05:02:48.528Z,58.50
2019-03-26T05:05:21.187Z,58.90
2019-03-26T05:07:54.138Z,58.60
2019-03-26T05:10:26.827Z,58.60
2019-03-26T05:12:59.789Z,58.70
2019-03-26T05:15:32.437Z,58.40
2019-03-26T05:18:05.182Z,58.60
2019-03-26T05:20:37.868Z,58.50
2019-03-26T05:23:10.474Z,58.00
2019-03-26T05:25:43.819Z,58.00
2019-03-26T05:28:17.435Z,58.20
2019-03-26T05:30:50.534Z,58.10
2019-03-26T05:33:23.155Z,58.00
2019-03-26T05:35:56.112Z,58.00
2019-03-26T05:38:29.347Z,57.70
2019-03-26T05:41:02.069Z,57.60
2019-03-26T05:43:34.698Z,57.60
2019-03-26T05:46:07.344Z,57.80
2019-03-26T05:48:39.979Z,58.20
2019-03-26T05:51:13.093Z,58.30
2019-03-26T05:53:45.739Z,58.30
2019-03-26T05:56:18.862Z,58.20
2019-03-26T05:58:52.375Z,58.10
2019-03-26T06:01:25.607Z,58.20
2019-03-26T06:03:58.622Z,57.90
2019-03-26T06:06:32.118Z,58.30
2019-03-26T06:09:05.635Z,58.20
2019-03-26T06:11:38.571Z,57.90
2019-03-26T06:14:11.622Z,58.40
2019-03-26T06:16:44.233Z,57.90
2019-03-26T06:19:17.239Z,57.50
2019-03-26T06:21:50.004Z,57.20
2019-03-26T06:24:22.678Z,57.10
2019-03-26T06:26:55.597Z,56.80
2019-03-26T06:29:28.277Z,57.00
2019-03-26T06:32:01.451Z,55.80
2019-03-26T06:34:34.126Z,55.50
2019-03-26T06:37:17.423Z,55.20
2019-03-26T06:39:41.554Z,55.20
2019-03-26T06:42:14.329Z,54.10
2019-03-26T06:44:47.119Z,54.80
2019-03-26T06:47:19.761Z,55.30
2019-03-26T06:49:52.922Z,55.10
2019-03-26T06:52:25.574Z,54.20
2019-03-26T06:54:58.269Z,54.30
2019-03-26T06:57:35.898Z,54.80
2019-03-26T07:00:07.257Z,55.30
2019-03-26T07:02:40.361Z,55.00
2019-03-26T07:05:13.757Z,54.70
2019-03-26T07:07:46.378Z,54.30
2019-03-26T07:10:23.992Z,54.50
2019-03-26T07:12:56.794Z,54.30
2019-03-26T07:15:29.494Z,53.60
2019-03-26T07:18:02.146Z,54.20
2019-03-26T07:20:35.264Z,54.30
2019-03-26T07:23:08.512Z,53.30
2019-03-26T07:25:41.633Z,54.30
2019-03-26T07:28:14.253Z,54.00
2019-03-26T07:30:48.276Z,53.70
2019-03-26T07:33:21.116Z,53.90
2019-03-26T07:35:53.807Z,53.80
2019-03-26T07:38:26.473Z,53.40
2019-03-26T07:40:59.155Z,53.30
2019-03-26T07:43:32.086Z,52.60
2019-03-26T07:46:04.777Z,52.70
2019-03-26T07:48:37.700Z,52.40
2019-03-26T07:51:10.824Z,51.50
2019-03-26T07:53:43.722Z,51.30
2019-03-26T07:56:17.432Z,51.10
2019-03-26T07:58:50.121Z,52.20
2019-03-26T08:01:23.216Z,53.10
2019-03-26T08:03:55.842Z,52.80
2019-03-26T08:06:28.645Z,52.80
2019-03-26T08:09:01.717Z,51.50
2019-03-26T08:11:35.190Z,52.00
2019-03-26T08:14:08.198Z,51.50
2019-03-26T08:16:40.952Z,51.70
2019-03-26T08:19:13.710Z,51.40
2019-03-26T08:21:46.384Z,51.30
2019-03-26T08:24:19.466Z,52.30
2019-03-26T08:26:52.807Z,51.80
2019-03-26T08:29:25.435Z,52.20
2019-03-26T08:31:58.522Z,52.70
2019-03-26T08:34:31.582Z,53.40
2019-03-26T08:37:04.211Z,54.20
2019-03-26T08:39:37.239Z,54.30
2019-03-26T08:42:10.214Z,55.20
2019-03-26T08:44:42.856Z,55.20
2019-03-26T08:47:15.785Z,55.50
2019-03-26T08:49:48.602Z,56.00
2019-03-26T08:52:21.543Z,56.20
2019-03-26T08:54:54.193Z,56.70
2019-03-26T08:57:26.790Z,57.80
2019-03-26T09:00:00.250Z,57.70
2019-03-26T09:02:33.276Z,57.80
2019-03-26T09:05:06.671Z,57.70
2019-03-26T09:07:39.630Z,57.40
2019-03-26T09:10:13.110Z,57.00
2019-03-26T09:12:45.996Z,56.40
2019-03-26T09:15:18.657Z,54.70
2019-03-26T09:17:51.256Z,55.60
2019-03-26T09:20:24.246Z,54.30
2019-03-26T09:22:56.857Z,51.80
2019-03-26T09:25:29.529Z,52.40
2019-03-26T09:28:02.132Z,51.30
2019-03-26T09:30:34.827Z,50.60
2019-03-26T09:33:08.404Z,51.50
2019-03-26T09:35:41.085Z,50.10
2019-03-26T09:38:14.933Z,50.00
2019-03-26T09:40:47.589Z,48.60
2019-03-26T09:43:20.568Z,49.50
2019-03-26T09:45:53.217Z,50.70
2019-03-26T09:48:26.112Z,49.30
2019-03-26T09:50:59.115Z,47.10
2019-03-26T09:53:31.761Z,46.50
2019-03-26T09:56:04.404Z,46.00
2019-03-26T09:58:37.126Z,45.50
2019-03-26T10:01:10.153Z,44.50
2019-03-26T10:03:42.774Z,42.70
2019-03-26T10:06:23.209Z,39.70
2019-03-26T10:08:52.767Z,36.80
2019-03-26T10:11:24.262Z,38.10
2019-03-26T10:13:56.884Z,38.80
2019-03-26T10:16:29.804Z,39.30
2019-03-26T10:19:02.456Z,38.80
2019-03-26T10:21:35.137Z,41.10
2019-03-26T10:24:08.208Z,40.90
2019-03-26T10:26:40.914Z,38.50
2019-03-26T10:29:29.197Z,34.90
2019-03-26T10:31:48.547Z,34.60
2019-03-26T10:34:21.377Z,34.20
2019-03-26T10:36:54.439Z,33.80
2019-03-26T10:39:27.127Z,34.10
2019-03-26T10:41:59.795Z,36.30
2019-03-26T10:44:32.738Z,36.80
2019-03-26T10:47:05.406Z,35.90
2019-03-26T10:49:38.409Z,35.60
2019-03-26T10:52:11.092Z,32.10
2019-03-26T10:54:43.942Z,33.00
2019-03-26T10:57:16.604Z,33.80
2019-03-26T10:59:49.355Z,34.70
2019-03-26T11:02:22.083Z,35.60
2019-03-26T11:04:54.705Z,36.70
2019-03-26T11:07:27.668Z,36.60
2019-03-26T11:10:00.738Z,36.80
2019-03-26T11:12:33.525Z,35.60
2019-03-26T11:15:07.429Z,37.70
2019-03-26T11:17:40.089Z,38.30
2019-03-26T11:20:12.905Z,36.30
2019-03-26T11:22:45.916Z,35.70
2019-03-26T11:25:18.947Z,34.90
2019-03-26T11:27:51.620Z,33.70
2019-03-26T11:30:24.647Z,34.30
2019-03-26T11:32:57.654Z,33.60
2019-03-26T11:35:30.285Z,33.80
2019-03-26T11:38:03.064Z,31.50
2019-03-26T11:40:35.698Z,29.90
2019-03-26T11:43:08.644Z,31.20
2019-03-26T11:45:41.369Z,31.40
2019-03-26T11:48:14.025Z,29.80
2019-03-26T11:50:46.633Z,30.10
2019-03-26T11:53:19.523Z,31.70
2019-03-26T11:55:52.228Z,31.20
2019-03-26T11:58:30.268Z,32.30
2019-03-26T12:00:59.749Z,33.00
2019-03-26T12:03:32.388Z,33.70
2019-03-26T12:06:05.425Z,33.60
2019-03-26T12:08:39.344Z,34.20
2019-03-26T12:11:12.600Z,34.10
2019-03-26T12:13:46.029Z,34.90
2019-03-26T12:16:18.643Z,31.60
2019-03-26T12:18:51.415Z,29.40
2019-03-26T12:21:24.126Z,28.90
2019-03-26T12:23:57.154Z,28.20
2019-03-26T12:26:29.764Z,28.80
2019-03-26T12:29:02.427Z,29.00
2019-03-26T12:31:35.080Z,29.40
2019-03-26T12:34:08.192Z,27.10
2019-03-26T12:36:41.561Z,23.40
2019-03-26T12:39:14.982Z,20.80
2019-03-26T12:41:47.955Z,20.20
2019-03-26T12:44:20.619Z,18.80
2019-03-26T12:46:53.395Z,18.70
2019-03-26T12:49:26.078Z,20.50
2019-03-26T12:51:59.658Z,22.50
2019-03-26T12:54:32.344Z,24.40
2019-03-26T12:57:05.261Z,25.60
2019-03-26T12:59:38.969Z,26.70
2019-03-26T13:02:11.620Z,29.50
2019-03-26T13:04:44.289Z,31.20
2019-03-26T13:07:17.216Z,33.10
2019-03-26T13:09:50.084Z,35.10
2019-03-26T13:12:22.714Z,34.30
2019-03-26T13:14:55.700Z,33.30
2019-03-26T13:17:28.338Z,32.80
2019-03-26T13:20:01.321Z,32.80
2019-03-26T13:22:33.941Z,32.50
2019-03-26T13:25:06.879Z,30.10
2019-03-26T13:27:39.494Z,25.90
2019-03-26T13:30:14.352Z,22.70
2019-03-26T13:32:46.969Z,20.80
2019-03-26T13:35:19.959Z,21.20
2019-03-26T13:37:52.570Z,22.10
2019-03-26T13:40:27.396Z,23.60
2019-03-26T13:42:59.569Z,25.00
2019-03-26T13:45:33.043Z,27.50
2019-03-26T13:48:05.634Z,28.80
2019-03-26T13:50:38.299Z,29.60
2019-03-26T13:53:10.905Z,29.90
2019-03-26T13:55:43.952Z,29.20
2019-03-26T13:58:16.662Z,28.60
2019-03-26T14:00:49.330Z,26.50
2019-03-26T14:03:22.277Z,25.50
2019-03-26T14:05:55.344Z,25.30
2019-03-26T14:08:28.264Z,26.40
2019-03-26T14:11:01.032Z,23.60
2019-03-26T14:13:34.019Z,20.20
2019-03-26T14:16:06.679Z,20.00
2019-03-26T14:18:39.304Z,17.70
2019-03-26T14:21:12.303Z,19.50
2019-03-26T14:23:45.301Z,19.40
2019-03-26T14:26:18.154Z,17.70
2019-03-26T14:28:50.753Z,17.10
2019-03-26T14:31:23.453Z,16.50
2019-03-26T14:33:56.414Z,15.60
2019-03-26T14:36:29.783Z,15.40
2019-03-26T14:39:02.397Z,14.90
2019-03-26T14:41:35.058Z,13.40
2019-03-26T14:44:07.973Z,14.70
2019-03-26T14:46:40.763Z,15.40
2019-03-26T14:49:13.379Z,17.50
2019-03-26T14:51:46.046Z,18.40
2019-03-26T14:54:18.683Z,17.80
2019-03-26T14:56:51.364Z,18.10
2019-03-26T14:59:24.339Z,20.00
2019-03-26T15:01:57.388Z,22.10
2019-03-26T15:04:30.030Z,24.40
2019-03-26T15:07:02.699Z,25.90
2019-03-26T15:09:35.328Z,23.20
2019-03-26T15:12:08.038Z,22.70
2019-03-26T15:14:40.655Z,23.60
2019-03-26T15:17:13.322Z,24.60
2019-03-26T15:19:45.948Z,24.90
2019-03-26T15:22:18.606Z,25.40
2019-03-26T15:24:51.225Z,26.20
2019-03-26T15:27:24.013Z,26.60
2019-03-26T15:29:56.986Z,27.10
2019-03-26T15:32:29.748Z,27.00
2019-03-26T15:35:02.720Z,27.80
2019-03-26T15:37:35.399Z,27.90
2019-03-26T15:40:08.508Z,27.60
2019-03-26T15:42:41.202Z,28.60
2019-03-26T15:45:15.066Z,28.50
2019-03-26T15:47:48.075Z,28.50
2019-03-26T15:50:41.399Z,28.10
2019-03-26T15:53:14.554Z,28.60
2019-03-26T15:55:47.365Z,29.10
2019-03-26T15:58:20.020Z,29.20
2019-03-26T16:00:52.671Z,29.00
2019-03-26T16:03:26.312Z,29.20
2019-03-26T16:05:58.924Z,30.10
2019-03-26T16:08:31.678Z,29.70
2019-03-26T16:11:04.399Z,29.40
2019-03-26T16:13:37.401Z,29.40
2019-03-26T16:16:10.002Z,30.00
2019-03-26T16:18:42.662Z,30.80
2019-03-26T16:21:15.273Z,31.30
2019-03-26T16:23:47.926Z,31.50
2019-03-26T16:26:20.831Z,31.60
2019-03-26T16:28:53.621Z,30.20
2019-03-26T16:31:26.679Z,29.70
2019-03-26T16:33:59.714Z,28.60
2019-03-26T16:36:32.637Z,29.40
2019-03-26T16:39:06.760Z,29.60
2019-03-26T16:41:49.054Z,30.70
2019-03-26T16:44:13.908Z,31.80
2019-03-26T16:46:46.557Z,32.30
2019-03-26T16:49:20.066Z,32.70
2019-03-26T16:51:53.202Z,32.90
2019-03-26T16:54:25.860Z,33.20
2019-03-26T16:56:58.512Z,33.90
2019-03-26T16:59:34.020Z,34.50
2019-03-26T17:02:06.631Z,34.40
2019-03-26T17:04:39.490Z,34.50
2019-03-26T17:07:12.903Z,34.70
2019-03-26T17:09:45.499Z,34.90
2019-03-26T17:12:19.104Z,35.00
2019-03-26T17:14:52.352Z,35.00
2019-03-26T17:17:25.088Z,35.50
2019-03-26T17:19:57.724Z,35.80
2019-03-26T17:22:30.342Z,36.50
2019-03-26T17:25:03.088Z,36.60
2019-03-26T17:27:35.722Z,36.90
2019-03-26T17:30:08.772Z,36.70
2019-03-26T17:32:42.055Z,36.90
2019-03-26T17:35:14.713Z,36.90
2019-03-26T17:37:58.932Z,37.10
2019-03-26T17:40:22.009Z,37.70
2019-03-26T17:42:56.521Z,37.90
2019-03-26T17:45:29.542Z,38.10
2019-03-26T17:48:02.229Z,38.60
2019-03-26T17:50:34.957Z,38.90
2019-03-26T17:53:07.963Z,39.00
2019-03-26T17:55:40.620Z,39.40
2019-03-26T17:58:13.312Z,39.80
2019-03-26T18:00:47.257Z,40.00
2019-03-26T18:03:26.256Z,40.20
2019-03-26T18:05:54.631Z,40.30
2019-03-26T18:08:27.558Z,40.40
2019-03-26T18:11:00.190Z,40.20
2019-03-26T18:13:33.176Z,39.80
2019-03-26T18:16:05.816Z,39.60
2019-03-26T18:18:38.537Z,39.60
2019-03-26T18:21:11.141Z,39.60
2019-03-26T18:23:44.087Z,39.80
2019-03-26T18:26:16.721Z,39.90
2019-03-26T18:28:49.462Z,40.00
2019-03-26T18:31:22.094Z,40.30
2019-03-26T18:33:54.916Z,40.70
2019-03-26T18:36:27.913Z,40.60
2019-03-26T18:39:00.595Z,40.50
2019-03-26T18:41:33.254Z,40.30
2019-03-26T18:44:06.236Z,40.10
2019-03-26T18:46:38.873Z,39.90
2019-03-26T18:49:11.816Z,39.80
2019-03-26T18:51:44.432Z,40.40
2019-03-26T18:54:17.085Z,39.70
2019-03-26T18:56:49.727Z,40.30
2019-03-26T18:59:22.398Z,40.80
2019-03-26T19:01:55.039Z,41.10
2019-03-26T19:04:28.081Z,41.40
2019-03-26T19:07:00.708Z,41.80
2019-03-26T19:09:33.387Z,42.10
2019-03-26T19:12:06.042Z,41.80
2019-03-26T19:14:38.735Z,42.00
2019-03-26T19:17:11.370Z,42.10
2019-03-26T19:19:44.982Z,42.70
2019-03-26T19:22:17.608Z,43.40
2019-03-26T19:24:50.572Z,43.50
2019-03-26T19:27:23.527Z,43.40
2019-03-26T19:29:56.200Z,42.90
2019-03-26T19:32:28.878Z,43.10
2019-03-26T19:35:01.672Z,43.50
2019-03-26T19:37:34.373Z,43.50
2019-03-26T19:40:07.640Z,44.10
2019-03-26T19:42:40.950Z,44.90
2019-03-26T19:45:13.754Z,45.60
2019-03-26T19:47:46.688Z,45.40
2019-03-26T19:50:19.735Z,45.90
2019-03-26T19:52:52.359Z,45.60
2019-03-26T19:55:25.388Z,45.70
2019-03-26T19:57:58.361Z,46.10
2019-03-26T20:00:31.471Z,46.10
2019-03-26T20:03:04.094Z,46.20
2019-03-26T20:05:36.752Z,46.10
2019-03-26T20:08:09.677Z,46.10
2019-03-26T20:10:42.702Z,46.30
2019-03-26T20:13:24.186Z,46.50
2019-03-26T20:15:50.012Z,46.50
2019-03-26T20:18:22.957Z,46.30
2019-03-26T20:20:56.077Z,45.80
2019-03-26T20:23:28.692Z,46.00
2019-03-26T20:26:01.336Z,45.70
2019-03-26T20:28:33.936Z,45.80
2019-03-26T20:31:06.644Z,45.70
2019-03-26T20:33:42.219Z,45.10
2019-03-26T20:36:13.602Z,45.00
2019-03-26T20:38:46.735Z,44.10
2019-03-26T20:41:19.385Z,44.10
2019-03-26T20:43:52.042Z,44.60
2019-03-26T20:46:25.048Z,44.80
2019-03-26T20:48:57.700Z,45.10
2019-03-26T20:51:30.386Z,44.80
2019-03-26T20:54:03.625Z,44.50
2019-03-26T20:56:40.621Z,44.30
2019-03-26T20:59:11.970Z,44.00
2019-03-26T21:01:45.623Z,44.50
2019-03-26T21:04:19.151Z,43.60
2019-03-26T21:06:52.095Z,43.20
2019-03-26T21:09:24.568Z,42.40
2019-03-26T21:11:57.550Z,41.00
2019-03-26T21:14:30.232Z,40.40
2019-03-26T21:17:02.904Z,39.70
2019-03-26T21:19:35.551Z,39.40
2019-03-26T21:22:09.058Z,39.20
2019-03-26T21:24:41.726Z,39.10
2019-03-26T21:27:14.407Z,38.60
2019-03-26T21:29:47.398Z,38.70
2019-03-26T21:32:20.774Z,38.80
2019-03-26T21:34:53.566Z,38.30
2019-03-26T21:37:26.724Z,38.70
2019-03-26T21:39:59.896Z,39.10
2019-03-26T21:42:32.862Z,39.20
2019-03-26T21:45:06.520Z,39.00
2019-03-26T21:47:39.214Z,38.90
2019-03-26T21:50:12.382Z,39.80
2019-03-26T21:52:45.406Z,39.80
2019-03-26T21:55:18.635Z,39.00
2019-03-26T21:57:51.327Z,39.30
2019-03-26T22:00:24.345Z,39.20
2019-03-26T22:02:58.512Z,39.70
2019-03-26T22:05:31.757Z,40.50
2019-03-26T22:08:04.414Z,41.30
2019-03-26T22:10:37.321Z,41.80
2019-03-26T22:13:10.338Z,41.70
2019-03-26T22:15:43.617Z,42.30
2019-03-26T22:18:16.665Z,42.50
2019-03-26T22:20:49.613Z,42.40
2019-03-26T22:23:22.604Z,43.00
2019-03-26T22:25:55.511Z,42.10
2019-03-26T22:28:28.402Z,42.00
2019-03-26T22:31:01.162Z,42.20
2019-03-26T22:33:33.792Z,42.30
2019-03-26T22:36:06.615Z,42.70
2019-03-26T22:38:39.660Z,42.80
2019-03-26T22:41:12.348Z,43.70
2019-03-26T22:43:45.334Z,43.40
2019-03-26T22:46:18.330Z,43.50
2019-03-26T22:48:51.280Z,43.70
2019-03-26T22:51:23.971Z,44.10
2019-03-26T22:53:57.320Z,44.90
2019-03-26T22:56:30.001Z,43.80
2019-03-26T22:59:02.924Z,44.00
2019-03-26T23:01:35.660Z,43.90
2019-03-26T23:04:08.298Z,44.20
2019-03-26T23:06:40.980Z,44.20
2019-03-26T23:09:13.616Z,43.90
2019-03-26T23:11:46.305Z,44.20
2019-03-26T23:14:18.955Z,44.40
2019-03-26T23:16:51.628Z,44.60
2019-03-26T23:19:24.237Z,44.90
2019-03-26T23:21:57.263Z,44.80
2019-03-26T23:24:29.877Z,45.10
2019-03-26T23:27:02.929Z,46.20
2019-03-26T23:29:35.561Z,46.40
2019-03-26T23:32:08.304Z,46.60
2019-03-26T23:34:41.217Z,47.10
2019-03-26T23:37:14.198Z,47.30
2019-03-26T23:39:46.828Z,47.30
2019-03-26T23:42:19.803Z,47.10
2019-03-26T23:44:58.622Z,47.00
2019-03-26T23:47:27.705Z,46.80
2019-03-26T23:50:00.405Z,47.00
2019-03-26T23:52:33.071Z,47.10
2019-03-26T23:55:06.232Z,47.40
2019-03-26T23:57:39.086Z,47.80
